sensor_id;sensor_type;location;lat;lon;timestamp;P1;durP1;ratioP1;P2;durP2;ratioP2
9080;SDS011;13509;50.760;6.080;2023-03-14T00:00:06;8.90;;;2.67;;
9080;SDS011;13509;50.760;6.080;2023-03-14T00:02:36;8.83;;;2.77;;
9080;SDS011;13509;50.760;6.080;2023-03-14T00:05:04;8.20;;;2.33;;
9080;SDS011;13509;50.760;6.080;2023-03-14T00:07:33;7.07;;;2.37;;
9080;SDS011;13509;50.760;6.080;2023-03-14T00:10:03;4.00;;;1.77;;
9080;SDS011;13509;50.760;6.080;2023-03-14T00:12:31;10.10;;;2.20;;
9080;SDS011;13509;50.760;6.080;2023-03-14T00:15:01;9.43;;;2.27;;
9080;SDS011;13509;50.760;6.080;2023-03-14T00:17:30;8.37;;;2.40;;
9080;SDS011;13509;50.760;6.080;2023-03-14T00:19:58;4.90;;;2.50;;
9080;SDS011;13509;50.760;6.080;2023-03-14T00:22:30;12.00;;;2.30;;
9080;SDS011;13509;50.760;6.080;2023-03-14T00:24:58;8.57;;;2.27;;
9080;SDS011;13509;50.760;6.080;2023-03-14T00:27:26;6.07;;;1.80;;
9080;SDS011;13509;50.760;6.080;2023-03-14T00:29:55;10.20;;;2.33;;
9080;SDS011;13509;50.760;6.080;2023-03-14T00:32:24;5.40;;;1.60;;
9080;SDS011;13509;50.760;6.080;2023-03-14T00:34:52;7.60;;;1.70;;
9080;SDS011;13509;50.760;6.080;2023-03-14T00:37:21;6.13;;;1.67;;
9080;SDS011;13509;50.760;6.080;2023-03-14T00:39:50;4.90;;;1.17;;
9080;SDS011;13509;50.760;6.080;2023-03-14T00:42:19;3.77;;;1.30;;
9080;SDS011;13509;50.760;6.080;2023-03-14T00:44:47;3.97;;;1.30;;
9080;SDS011;13509;50.760;6.080;2023-03-14T00:47:15;7.13;;;1.20;;
9080;SDS011;13509;50.760;6.080;2023-03-14T00:49:45;3.60;;;1.23;;
9080;SDS011;13509;50.760;6.080;2023-03-14T00:52:13;4.83;;;1.20;;
9080;SDS011;13509;50.760;6.080;2023-03-14T00:54:41;5.03;;;1.90;;
9080;SDS011;13509;50.760;6.080;2023-03-14T00:57:09;5.73;;;1.30;;
9080;SDS011;13509;50.760;6.080;2023-03-14T00:59:37;5.57;;;1.23;;
9080;SDS011;13509;50.760;6.080;2023-03-14T01:02:06;4.10;;;1.20;;
9080;SDS011;13509;50.760;6.080;2023-03-14T01:04:34;6.37;;;1.70;;
9080;SDS011;13509;50.760;6.080;2023-03-14T01:07:05;2.97;;;1.20;;
9080;SDS011;13509;50.760;6.080;2023-03-14T01:09:33;4.27;;;1.10;;
9080;SDS011;13509;50.760;6.080;2023-03-14T01:12:01;2.80;;;1.23;;
9080;SDS011;13509;50.760;6.080;2023-03-14T01:14:29;4.50;;;1.30;;
9080;SDS011;13509;50.760;6.080;2023-03-14T01:16:57;4.50;;;1.50;;
9080;SDS011;13509;50.760;6.080;2023-03-14T01:19:27;7.20;;;1.37;;
9080;SDS011;13509;50.760;6.080;2023-03-14T01:21:55;3.90;;;1.33;;
9080;SDS011;13509;50.760;6.080;2023-03-14T01:24:25;4.43;;;1.10;;
9080;SDS011;13509;50.760;6.080;2023-03-14T01:26:53;4.83;;;1.20;;
9080;SDS011;13509;50.760;6.080;2023-03-14T01:29:21;6.73;;;1.23;;
9080;SDS011;13509;50.760;6.080;2023-03-14T01:31:49;4.03;;;1.00;;
9080;SDS011;13509;50.760;6.080;2023-03-14T01:34:17;5.00;;;1.30;;
9080;SDS011;13509;50.760;6.080;2023-03-14T01:36:46;9.97;;;1.63;;
9080;SDS011;13509;50.760;6.080;2023-03-14T01:39:14;6.37;;;1.40;;
9080;SDS011;13509;50.760;6.080;2023-03-14T01:41:43;6.67;;;1.40;;
9080;SDS011;13509;50.760;6.080;2023-03-14T01:44:12;6.17;;;1.40;;
9080;SDS011;13509;50.760;6.080;2023-03-14T01:46:40;6.17;;;1.30;;
9080;SDS011;13509;50.760;6.080;2023-03-14T01:49:13;7.43;;;1.50;;
9080;SDS011;13509;50.760;6.080;2023-03-14T01:51:44;4.03;;;1.60;;
9080;SDS011;13509;50.760;6.080;2023-03-14T01:54:15;5.47;;;1.70;;
9080;SDS011;13509;50.760;6.080;2023-03-14T01:56:46;4.40;;;1.23;;
9080;SDS011;13509;50.760;6.080;2023-03-14T01:59:15;7.50;;;1.77;;
9080;SDS011;13509;50.760;6.080;2023-03-14T02:01:43;6.47;;;1.80;;
9080;SDS011;13509;50.760;6.080;2023-03-14T02:04:12;7.53;;;1.70;;
9080;SDS011;13509;50.760;6.080;2023-03-14T02:06:45;4.57;;;1.80;;
9080;SDS011;13509;50.760;6.080;2023-03-14T02:09:14;5.90;;;2.20;;
9080;SDS011;13509;50.760;6.080;2023-03-14T02:11:43;6.77;;;1.80;;
9080;SDS011;13509;50.760;6.080;2023-03-14T02:14:16;5.20;;;1.67;;
9080;SDS011;13509;50.760;6.080;2023-03-14T02:16:45;9.13;;;1.97;;
9080;SDS011;13509;50.760;6.080;2023-03-14T02:19:14;12.57;;;2.00;;
9080;SDS011;13509;50.760;6.080;2023-03-14T02:21:46;9.70;;;2.30;;
9080;SDS011;13509;50.760;6.080;2023-03-14T02:24:18;9.80;;;2.00;;
9080;SDS011;13509;50.760;6.080;2023-03-14T02:27:04;4.63;;;1.90;;
9080;SDS011;13509;50.760;6.080;2023-03-14T02:29:32;8.43;;;1.97;;
9080;SDS011;13509;50.760;6.080;2023-03-14T02:32:01;7.33;;;1.90;;
9080;SDS011;13509;50.760;6.080;2023-03-14T02:34:29;10.93;;;2.00;;
9080;SDS011;13509;50.760;6.080;2023-03-14T02:36:58;11.87;;;2.20;;
9080;SDS011;13509;50.760;6.080;2023-03-14T02:39:27;9.83;;;2.57;;
9080;SDS011;13509;50.760;6.080;2023-03-14T02:41:57;12.37;;;2.40;;
9080;SDS011;13509;50.760;6.080;2023-03-14T02:44:26;10.27;;;2.20;;
9080;SDS011;13509;50.760;6.080;2023-03-14T02:46:54;11.63;;;2.07;;
9080;SDS011;13509;50.760;6.080;2023-03-14T02:49:23;12.93;;;2.67;;
9080;SDS011;13509;50.760;6.080;2023-03-14T02:51:51;13.20;;;2.67;;
9080;SDS011;13509;50.760;6.080;2023-03-14T02:54:19;6.10;;;1.80;;
9080;SDS011;13509;50.760;6.080;2023-03-14T02:56:48;4.93;;;1.70;;
9080;SDS011;13509;50.760;6.080;2023-03-14T02:59:16;7.73;;;2.17;;
9080;SDS011;13509;50.760;6.080;2023-03-14T03:01:46;5.27;;;1.80;;
9080;SDS011;13509;50.760;6.080;2023-03-14T03:04:14;5.13;;;2.03;;
9080;SDS011;13509;50.760;6.080;2023-03-14T03:06:42;9.27;;;1.80;;
9080;SDS011;13509;50.760;6.080;2023-03-14T03:09:10;11.53;;;2.10;;
9080;SDS011;13509;50.760;6.080;2023-03-14T03:11:38;9.93;;;2.13;;
9080;SDS011;13509;50.760;6.080;2023-03-14T03:14:07;5.20;;;1.50;;
9080;SDS011;13509;50.760;6.080;2023-03-14T03:16:35;6.10;;;1.80;;
9080;SDS011;13509;50.760;6.080;2023-03-14T03:19:04;5.27;;;1.80;;
9080;SDS011;13509;50.760;6.080;2023-03-14T03:21:33;6.40;;;1.80;;
9080;SDS011;13509;50.760;6.080;2023-03-14T03:24:01;2.63;;;1.37;;
9080;SDS011;13509;50.760;6.080;2023-03-14T03:26:29;1.97;;;0.90;;
9080;SDS011;13509;50.760;6.080;2023-03-14T03:28:57;4.20;;;1.43;;
9080;SDS011;13509;50.760;6.080;2023-03-14T03:31:25;2.13;;;1.20;;
9080;SDS011;13509;50.760;6.080;2023-03-14T03:33:53;3.03;;;1.17;;
9080;SDS011;13509;50.760;6.080;2023-03-14T03:36:24;3.43;;;1.03;;
9080;SDS011;13509;50.760;6.080;2023-03-14T03:38:52;6.07;;;1.10;;
9080;SDS011;13509;50.760;6.080;2023-03-14T03:41:20;2.47;;;1.10;;
9080;SDS011;13509;50.760;6.080;2023-03-14T03:43:48;2.87;;;0.93;;
9080;SDS011;13509;50.760;6.080;2023-03-14T03:46:17;2.20;;;0.77;;
9080;SDS011;13509;50.760;6.080;2023-03-14T03:48:45;1.77;;;0.90;;
9080;SDS011;13509;50.760;6.080;2023-03-14T03:51:13;1.53;;;0.90;;
9080;SDS011;13509;50.760;6.080;2023-03-14T03:53:43;1.40;;;0.70;;
9080;SDS011;13509;50.760;6.080;2023-03-14T03:56:11;3.20;;;0.87;;
9080;SDS011;13509;50.760;6.080;2023-03-14T03:58:39;0.73;;;0.63;;
9080;SDS011;13509;50.760;6.080;2023-03-14T04:01:08;1.70;;;0.70;;
9080;SDS011;13509;50.760;6.080;2023-03-14T04:03:37;1.33;;;0.67;;
9080;SDS011;13509;50.760;6.080;2023-03-14T04:06:08;1.90;;;1.30;;
9080;SDS011;13509;50.760;6.080;2023-03-14T04:08:36;0.57;;;0.57;;
9080;SDS011;13509;50.760;6.080;2023-03-14T04:11:06;1.63;;;0.70;;
9080;SDS011;13509;50.760;6.080;2023-03-14T04:13:34;0.60;;;0.60;;
9080;SDS011;13509;50.760;6.080;2023-03-14T04:16:03;1.37;;;0.80;;
9080;SDS011;13509;50.760;6.080;2023-03-14T04:18:31;0.97;;;0.57;;
9080;SDS011;13509;50.760;6.080;2023-03-14T04:20:59;1.37;;;0.67;;
9080;SDS011;13509;50.760;6.080;2023-03-14T04:23:27;0.50;;;0.50;;
9080;SDS011;13509;50.760;6.080;2023-03-14T04:25:56;0.90;;;0.50;;
9080;SDS011;13509;50.760;6.080;2023-03-14T04:28:25;1.13;;;0.60;;
9080;SDS011;13509;50.760;6.080;2023-03-14T04:30:53;2.33;;;0.60;;
9080;SDS011;13509;50.760;6.080;2023-03-14T04:33:22;0.50;;;0.40;;
9080;SDS011;13509;50.760;6.080;2023-03-14T04:35:52;0.57;;;0.50;;
9080;SDS011;13509;50.760;6.080;2023-03-14T04:38:21;1.13;;;0.50;;
9080;SDS011;13509;50.760;6.080;2023-03-14T04:40:49;1.77;;;0.50;;
9080;SDS011;13509;50.760;6.080;2023-03-14T04:43:17;0.50;;;0.50;;
9080;SDS011;13509;50.760;6.080;2023-03-14T04:45:47;0.30;;;0.30;;
9080;SDS011;13509;50.760;6.080;2023-03-14T04:48:15;1.50;;;0.53;;
9080;SDS011;13509;50.760;6.080;2023-03-14T04:50:43;0.30;;;0.30;;
9080;SDS011;13509;50.760;6.080;2023-03-14T04:53:12;0.30;;;0.30;;
9080;SDS011;13509;50.760;6.080;2023-03-14T04:55:40;0.30;;;0.30;;
9080;SDS011;13509;50.760;6.080;2023-03-14T04:58:08;0.10;;;0.10;;
9080;SDS011;13509;50.760;6.080;2023-03-14T05:00:37;0.60;;;0.23;;
9080;SDS011;13509;50.760;6.080;2023-03-14T05:03:06;3.10;;;0.50;;
9080;SDS011;13509;50.760;6.080;2023-03-14T05:05:34;0.30;;;0.30;;
9080;SDS011;13509;50.760;6.080;2023-03-14T05:08:03;0.20;;;0.20;;
9080;SDS011;13509;50.760;6.080;2023-03-14T05:10:31;0.77;;;0.40;;
9080;SDS011;13509;50.760;6.080;2023-03-14T05:12:59;0.20;;;0.20;;
9080;SDS011;13509;50.760;6.080;2023-03-14T05:15:27;0.30;;;0.30;;
9080;SDS011;13509;50.760;6.080;2023-03-14T05:17:55;1.40;;;0.40;;
9080;SDS011;13509;50.760;6.080;2023-03-14T05:20:25;0.50;;;0.40;;
9080;SDS011;13509;50.760;6.080;2023-03-14T05:22:53;0.33;;;0.33;;
9080;SDS011;13509;50.760;6.080;2023-03-14T05:25:21;0.30;;;0.30;;
9080;SDS011;13509;50.760;6.080;2023-03-14T05:27:49;0.53;;;0.30;;
9080;SDS011;13509;50.760;6.080;2023-03-14T05:30:17;0.30;;;0.30;;
9080;SDS011;13509;50.760;6.080;2023-03-14T05:32:46;0.20;;;0.20;;
9080;SDS011;13509;50.760;6.080;2023-03-14T05:35:14;0.23;;;0.20;;
9080;SDS011;13509;50.760;6.080;2023-03-14T05:37:44;0.20;;;0.20;;
9080;SDS011;13509;50.760;6.080;2023-03-14T05:40:12;0.50;;;0.33;;
9080;SDS011;13509;50.760;6.080;2023-03-14T05:42:40;0.40;;;0.40;;
9080;SDS011;13509;50.760;6.080;2023-03-14T05:45:09;0.30;;;0.30;;
9080;SDS011;13509;50.760;6.080;2023-03-14T05:47:37;1.20;;;0.30;;
9080;SDS011;13509;50.760;6.080;2023-03-14T05:50:05;1.00;;;0.30;;
9080;SDS011;13509;50.760;6.080;2023-03-14T05:52:34;0.30;;;0.30;;
9080;SDS011;13509;50.760;6.080;2023-03-14T05:55:04;0.40;;;0.30;;
9080;SDS011;13509;50.760;6.080;2023-03-14T05:57:32;0.20;;;0.20;;
9080;SDS011;13509;50.760;6.080;2023-03-14T06:00:00;0.20;;;0.20;;
9080;SDS011;13509;50.760;6.080;2023-03-14T06:02:28;0.40;;;0.40;;
9080;SDS011;13509;50.760;6.080;2023-03-14T06:04:57;3.30;;;0.20;;
9080;SDS011;13509;50.760;6.080;2023-03-14T06:07:25;1.17;;;0.50;;
9080;SDS011;13509;50.760;6.080;2023-03-14T06:09:53;0.60;;;0.40;;
9080;SDS011;13509;50.760;6.080;2023-03-14T06:12:23;0.40;;;0.40;;
9080;SDS011;13509;50.760;6.080;2023-03-14T06:14:51;0.40;;;0.40;;
9080;SDS011;13509;50.760;6.080;2023-03-14T06:17:19;0.40;;;0.40;;
9080;SDS011;13509;50.760;6.080;2023-03-14T06:19:47;0.50;;;0.50;;
9080;SDS011;13509;50.760;6.080;2023-03-14T06:22:15;0.40;;;0.40;;
9080;SDS011;13509;50.760;6.080;2023-03-14T06:24:43;0.50;;;0.47;;
9080;SDS011;13509;50.760;6.080;2023-03-14T06:27:12;0.60;;;0.60;;
9080;SDS011;13509;50.760;6.080;2023-03-14T06:29:41;0.40;;;0.40;;
9080;SDS011;13509;50.760;6.080;2023-03-14T06:32:09;2.77;;;0.50;;
9080;SDS011;13509;50.760;6.080;2023-03-14T06:34:38;0.50;;;0.50;;
9080;SDS011;13509;50.760;6.080;2023-03-14T06:37:06;0.63;;;0.50;;
9080;SDS011;13509;50.760;6.080;2023-03-14T06:39:35;0.50;;;0.50;;
9080;SDS011;13509;50.760;6.080;2023-03-14T06:42:04;0.83;;;0.60;;
9080;SDS011;13509;50.760;6.080;2023-03-14T06:44:33;0.50;;;0.50;;
9080;SDS011;13509;50.760;6.080;2023-03-14T06:47:02;0.50;;;0.50;;
9080;SDS011;13509;50.760;6.080;2023-03-14T06:49:30;0.80;;;0.80;;
9080;SDS011;13509;50.760;6.080;2023-03-14T06:51:59;1.30;;;0.77;;
9080;SDS011;13509;50.760;6.080;2023-03-14T06:54:27;0.80;;;0.80;;
9080;SDS011;13509;50.760;6.080;2023-03-14T06:56:55;1.53;;;0.80;;
9080;SDS011;13509;50.760;6.080;2023-03-14T06:59:23;1.10;;;1.00;;
9080;SDS011;13509;50.760;6.080;2023-03-14T07:01:51;0.80;;;0.80;;
9080;SDS011;13509;50.760;6.080;2023-03-14T07:04:21;1.00;;;0.90;;
9080;SDS011;13509;50.760;6.080;2023-03-14T07:06:49;1.07;;;0.97;;
9080;SDS011;13509;50.760;6.080;2023-03-14T07:09:17;0.87;;;0.87;;
9080;SDS011;13509;50.760;6.080;2023-03-14T07:11:46;2.03;;;0.83;;
9080;SDS011;13509;50.760;6.080;2023-03-14T07:14:14;0.80;;;0.80;;
9080;SDS011;13509;50.760;6.080;2023-03-14T07:16:42;1.07;;;0.80;;
9080;SDS011;13509;50.760;6.080;2023-03-14T07:19:11;0.60;;;0.60;;
9080;SDS011;13509;50.760;6.080;2023-03-14T07:21:40;0.73;;;0.73;;
9080;SDS011;13509;50.760;6.080;2023-03-14T07:24:09;0.70;;;0.70;;
9080;SDS011;13509;50.760;6.080;2023-03-14T07:26:37;0.70;;;0.70;;
9080;SDS011;13509;50.760;6.080;2023-03-14T07:29:05;0.90;;;0.90;;
9080;SDS011;13509;50.760;6.080;2023-03-14T07:31:33;0.87;;;0.80;;
9080;SDS011;13509;50.760;6.080;2023-03-14T07:34:01;0.70;;;0.70;;
9080;SDS011;13509;50.760;6.080;2023-03-14T07:36:30;1.13;;;0.80;;
9080;SDS011;13509;50.760;6.080;2023-03-14T07:38:59;0.80;;;0.80;;
9080;SDS011;13509;50.760;6.080;2023-03-14T07:41:27;0.80;;;0.80;;
9080;SDS011;13509;50.760;6.080;2023-03-14T07:43:56;1.03;;;0.83;;
9080;SDS011;13509;50.760;6.080;2023-03-14T07:46:24;0.60;;;0.60;;
9080;SDS011;13509;50.760;6.080;2023-03-14T07:48:52;1.60;;;0.70;;
9080;SDS011;13509;50.760;6.080;2023-03-14T07:51:20;1.30;;;0.97;;
9080;SDS011;13509;50.760;6.080;2023-03-14T07:53:49;1.23;;;0.90;;
9080;SDS011;13509;50.760;6.080;2023-03-14T07:56:18;0.73;;;0.73;;
9080;SDS011;13509;50.760;6.080;2023-03-14T07:58:46;1.37;;;0.97;;
9080;SDS011;13509;50.760;6.080;2023-03-14T08:01:15;1.47;;;0.80;;
9080;SDS011;13509;50.760;6.080;2023-03-14T08:03:43;1.00;;;0.90;;
9080;SDS011;13509;50.760;6.080;2023-03-14T08:06:11;1.50;;;1.00;;
9080;SDS011;13509;50.760;6.080;2023-03-14T08:08:39;1.27;;;1.10;;
9080;SDS011;13509;50.760;6.080;2023-03-14T08:11:07;2.40;;;1.00;;
9080;SDS011;13509;50.760;6.080;2023-03-14T08:13:37;1.13;;;1.00;;
9080;SDS011;13509;50.760;6.080;2023-03-14T08:16:06;0.90;;;0.90;;
9080;SDS011;13509;50.760;6.080;2023-03-14T08:18:34;1.03;;;0.80;;
9080;SDS011;13509;50.760;6.080;2023-03-14T08:21:02;1.07;;;0.93;;
9080;SDS011;13509;50.760;6.080;2023-03-14T08:23:30;1.53;;;0.60;;
9080;SDS011;13509;50.760;6.080;2023-03-14T08:25:59;1.00;;;0.70;;
9080;SDS011;13509;50.760;6.080;2023-03-14T08:28:27;1.70;;;0.90;;
9080;SDS011;13509;50.760;6.080;2023-03-14T08:30:58;0.60;;;0.53;;
9080;SDS011;13509;50.760;6.080;2023-03-14T08:33:27;0.60;;;0.60;;
9080;SDS011;13509;50.760;6.080;2023-03-14T08:35:57;0.90;;;0.90;;
9080;SDS011;13509;50.760;6.080;2023-03-14T08:38:25;1.50;;;0.73;;
9080;SDS011;13509;50.760;6.080;2023-03-14T08:40:57;2.73;;;0.80;;
9080;SDS011;13509;50.760;6.080;2023-03-14T08:43:25;0.70;;;0.70;;
9080;SDS011;13509;50.760;6.080;2023-03-14T08:45:58;0.57;;;0.50;;
9080;SDS011;13509;50.760;6.080;2023-03-14T08:48:26;0.83;;;0.40;;
9080;SDS011;13509;50.760;6.080;2023-03-14T08:50:56;1.40;;;0.90;;
9080;SDS011;13509;50.760;6.080;2023-03-14T08:53:25;1.40;;;1.00;;
9080;SDS011;13509;50.760;6.080;2023-03-14T08:55:53;1.03;;;0.97;;
9080;SDS011;13509;50.760;6.080;2023-03-14T08:58:21;0.90;;;0.90;;
9080;SDS011;13509;50.760;6.080;2023-03-14T09:00:49;0.93;;;0.90;;
9080;SDS011;13509;50.760;6.080;2023-03-14T09:03:19;0.70;;;0.70;;
9080;SDS011;13509;50.760;6.080;2023-03-14T09:05:49;0.80;;;0.80;;
9080;SDS011;13509;50.760;6.080;2023-03-14T09:08:17;0.90;;;0.90;;
9080;SDS011;13509;50.760;6.080;2023-03-14T09:10:45;0.70;;;0.70;;
9080;SDS011;13509;50.760;6.080;2023-03-14T09:13:14;1.73;;;0.87;;
9080;SDS011;13509;50.760;6.080;2023-03-14T09:15:42;1.50;;;1.00;;
9080;SDS011;13509;50.760;6.080;2023-03-14T09:18:10;0.80;;;0.70;;
9080;SDS011;13509;50.760;6.080;2023-03-14T09:20:40;1.07;;;0.97;;
9080;SDS011;13509;50.760;6.080;2023-03-14T09:23:09;2.70;;;1.00;;
9080;SDS011;13509;50.760;6.080;2023-03-14T09:25:37;1.40;;;1.10;;
9080;SDS011;13509;50.760;6.080;2023-03-14T09:28:05;1.50;;;1.40;;
9080;SDS011;13509;50.760;6.080;2023-03-14T09:30:33;1.53;;;1.23;;
9080;SDS011;13509;50.760;6.080;2023-03-14T09:33:01;2.63;;;1.40;;
9080;SDS011;13509;50.760;6.080;2023-03-14T09:35:30;2.37;;;1.60;;
9080;SDS011;13509;50.760;6.080;2023-03-14T09:37:59;1.93;;;1.77;;
9080;SDS011;13509;50.760;6.080;2023-03-14T09:40:30;2.77;;;2.20;;
9080;SDS011;13509;50.760;6.080;2023-03-14T09:42:59;2.63;;;1.90;;
9080;SDS011;13509;50.760;6.080;2023-03-14T09:45:28;2.97;;;2.27;;
9080;SDS011;13509;50.760;6.080;2023-03-14T09:47:57;2.77;;;2.03;;
9080;SDS011;13509;50.760;6.080;2023-03-14T09:50:25;2.43;;;2.00;;
9080;SDS011;13509;50.760;6.080;2023-03-14T09:52:56;3.07;;;2.33;;
9080;SDS011;13509;50.760;6.080;2023-03-14T09:55:26;2.20;;;2.00;;
9080;SDS011;13509;50.760;6.080;2023-03-14T09:57:54;6.30;;;2.40;;
9080;SDS011;13509;50.760;6.080;2023-03-14T10:00:25;4.17;;;2.10;;
9080;SDS011;13509;50.760;6.080;2023-03-14T10:02:54;2.87;;;2.27;;
9080;SDS011;13509;50.760;6.080;2023-03-14T10:05:24;2.60;;;1.80;;
9080;SDS011;13509;50.760;6.080;2023-03-14T10:07:54;3.03;;;2.60;;
9080;SDS011;13509;50.760;6.080;2023-03-14T10:10:23;2.87;;;1.83;;
9080;SDS011;13509;50.760;6.080;2023-03-14T10:12:56;3.03;;;2.33;;
9080;SDS011;13509;50.760;6.080;2023-03-14T10:15:25;2.97;;;2.10;;
9080;SDS011;13509;50.760;6.080;2023-03-14T10:17:53;4.07;;;2.40;;
9080;SDS011;13509;50.760;6.080;2023-03-14T10:20:26;3.37;;;2.10;;
9080;SDS011;13509;50.760;6.080;2023-03-14T10:22:58;3.03;;;2.13;;
9080;SDS011;13509;50.760;6.080;2023-03-14T10:25:27;3.40;;;2.23;;
9080;SDS011;13509;50.760;6.080;2023-03-14T10:27:57;5.23;;;3.73;;
9080;SDS011;13509;50.760;6.080;2023-03-14T10:30:27;8.33;;;5.40;;
9080;SDS011;13509;50.760;6.080;2023-03-14T10:32:56;3.30;;;2.63;;
9080;SDS011;13509;50.760;6.080;2023-03-14T10:35:25;4.00;;;3.57;;
9080;SDS011;13509;50.760;6.080;2023-03-14T10:37:53;31.07;;;18.87;;
9080;SDS011;13509;50.760;6.080;2023-03-14T10:40:26;3.13;;;2.40;;
9080;SDS011;13509;50.760;6.080;2023-03-14T10:42:56;3.67;;;2.47;;
9080;SDS011;13509;50.760;6.080;2023-03-14T10:45:31;3.67;;;2.30;;
9080;SDS011;13509;50.760;6.080;2023-03-14T10:48:05;5.97;;;3.60;;
9080;SDS011;13509;50.760;6.080;2023-03-14T10:50:34;3.57;;;2.53;;
9080;SDS011;13509;50.760;6.080;2023-03-14T10:53:02;3.83;;;2.80;;
9080;SDS011;13509;50.760;6.080;2023-03-14T10:55:39;2.10;;;1.43;;
9080;SDS011;13509;50.760;6.080;2023-03-14T10:58:21;1.27;;;1.00;;
9080;SDS011;13509;50.760;6.080;2023-03-14T11:00:52;2.50;;;1.30;;
9080;SDS011;13509;50.760;6.080;2023-03-14T11:03:21;1.10;;;0.90;;
9080;SDS011;13509;50.760;6.080;2023-03-14T11:05:52;2.43;;;1.33;;
9080;SDS011;13509;50.760;6.080;2023-03-14T11:08:23;1.20;;;1.10;;
9080;SDS011;13509;50.760;6.080;2023-03-14T11:10:53;1.17;;;1.00;;
9080;SDS011;13509;50.760;6.080;2023-03-14T11:13:23;4.60;;;1.30;;
9080;SDS011;13509;50.760;6.080;2023-03-14T11:15:56;1.30;;;1.00;;
9080;SDS011;13509;50.760;6.080;2023-03-14T11:18:35;1.20;;;1.10;;
9080;SDS011;13509;50.760;6.080;2023-03-14T11:21:06;1.57;;;1.47;;
9080;SDS011;13509;50.760;6.080;2023-03-14T11:23:39;4.20;;;1.50;;
9080;SDS011;13509;50.760;6.080;2023-03-14T11:26:14;3.10;;;1.63;;
9080;SDS011;13509;50.760;6.080;2023-03-14T11:28:47;3.00;;;1.40;;
9080;SDS011;13509;50.760;6.080;2023-03-14T11:31:19;2.33;;;1.30;;
9080;SDS011;13509;50.760;6.080;2023-03-14T11:33:50;3.27;;;1.37;;
9080;SDS011;13509;50.760;6.080;2023-03-14T11:36:22;1.73;;;1.60;;
9080;SDS011;13509;50.760;6.080;2023-03-14T11:38:55;2.67;;;1.77;;
9080;SDS011;13509;50.760;6.080;2023-03-14T11:41:25;1.83;;;1.10;;
9080;SDS011;13509;50.760;6.080;2023-03-14T11:43:54;1.80;;;1.10;;
9080;SDS011;13509;50.760;6.080;2023-03-14T11:46:25;2.60;;;1.30;;
9080;SDS011;13509;50.760;6.080;2023-03-14T11:48:57;3.03;;;1.03;;
9080;SDS011;13509;50.760;6.080;2023-03-14T11:51:28;1.80;;;1.20;;
9080;SDS011;13509;50.760;6.080;2023-03-14T11:53:58;1.00;;;0.93;;
9080;SDS011;13509;50.760;6.080;2023-03-14T11:56:29;1.17;;;0.93;;
9080;SDS011;13509;50.760;6.080;2023-03-14T11:58:59;1.40;;;0.90;;
9080;SDS011;13509;50.760;6.080;2023-03-14T12:01:34;2.00;;;1.10;;
9080;SDS011;13509;50.760;6.080;2023-03-14T12:04:07;1.03;;;0.90;;
9080;SDS011;13509;50.760;6.080;2023-03-14T12:06:37;1.80;;;0.90;;
9080;SDS011;13509;50.760;6.080;2023-03-14T12:09:08;1.43;;;1.00;;
9080;SDS011;13509;50.760;6.080;2023-03-14T12:11:39;1.87;;;1.10;;
9080;SDS011;13509;50.760;6.080;2023-03-14T12:14:22;2.53;;;1.00;;
9080;SDS011;13509;50.760;6.080;2023-03-14T12:16:54;1.97;;;0.93;;
9080;SDS011;13509;50.760;6.080;2023-03-14T12:19:28;2.53;;;1.10;;
9080;SDS011;13509;50.760;6.080;2023-03-14T12:22:01;1.13;;;1.03;;
9080;SDS011;13509;50.760;6.080;2023-03-14T12:24:34;2.00;;;1.37;;
9080;SDS011;13509;50.760;6.080;2023-03-14T12:27:04;2.87;;;1.03;;
9080;SDS011;13509;50.760;6.080;2023-03-14T12:29:46;2.03;;;0.90;;
9080;SDS011;13509;50.760;6.080;2023-03-14T12:32:28;2.10;;;0.97;;
9080;SDS011;13509;50.760;6.080;2023-03-14T12:34:58;1.87;;;0.90;;
9080;SDS011;13509;50.760;6.080;2023-03-14T12:37:34;1.90;;;0.90;;
9080;SDS011;13509;50.760;6.080;2023-03-14T12:40:12;3.07;;;1.00;;
9080;SDS011;13509;50.760;6.080;2023-03-14T12:42:45;1.80;;;1.10;;
9080;SDS011;13509;50.760;6.080;2023-03-14T12:45:26;3.57;;;1.27;;
9080;SDS011;13509;50.760;6.080;2023-03-14T12:48:00;2.00;;;1.30;;
9080;SDS011;13509;50.760;6.080;2023-03-14T12:50:34;4.37;;;1.37;;
9080;SDS011;13509;50.760;6.080;2023-03-14T12:55:49;2.03;;;1.10;;
9080;SDS011;13509;50.760;6.080;2023-03-14T12:58:22;5.80;;;1.30;;
9080;SDS011;13509;50.760;6.080;2023-03-14T13:00:54;2.03;;;1.20;;
9080;SDS011;13509;50.760;6.080;2023-03-14T13:03:25;1.00;;;0.90;;
9080;SDS011;13509;50.760;6.080;2023-03-14T13:05:55;1.43;;;0.87;;
9080;SDS011;13509;50.760;6.080;2023-03-14T13:08:35;3.33;;;1.20;;
9080;SDS011;13509;50.760;6.080;2023-03-14T13:11:06;1.27;;;0.80;;
9080;SDS011;13509;50.760;6.080;2023-03-14T13:13:35;1.20;;;0.70;;
9080;SDS011;13509;50.760;6.080;2023-03-14T13:16:05;2.30;;;1.10;;
9080;SDS011;13509;50.760;6.080;2023-03-14T13:18:35;4.73;;;1.57;;
9080;SDS011;13509;50.760;6.080;2023-03-14T13:21:05;3.23;;;1.20;;
9080;SDS011;13509;50.760;6.080;2023-03-14T13:23:35;6.13;;;1.43;;
9080;SDS011;13509;50.760;6.080;2023-03-14T13:26:05;3.20;;;1.23;;
9080;SDS011;13509;50.760;6.080;2023-03-14T13:28:34;3.17;;;1.10;;
9080;SDS011;13509;50.760;6.080;2023-03-14T13:31:03;4.73;;;1.20;;
9080;SDS011;13509;50.760;6.080;2023-03-14T13:33:32;5.80;;;1.40;;
9080;SDS011;13509;50.760;6.080;2023-03-14T13:36:03;3.70;;;1.40;;
9080;SDS011;13509;50.760;6.080;2023-03-14T13:38:33;2.60;;;0.90;;
9080;SDS011;13509;50.760;6.080;2023-03-14T13:41:03;1.33;;;0.80;;
9080;SDS011;13509;50.760;6.080;2023-03-14T13:43:33;2.60;;;0.70;;
9080;SDS011;13509;50.760;6.080;2023-03-14T13:46:02;0.73;;;0.73;;
9080;SDS011;13509;50.760;6.080;2023-03-14T13:48:32;1.17;;;0.70;;
9080;SDS011;13509;50.760;6.080;2023-03-14T13:51:03;5.70;;;1.30;;
9080;SDS011;13509;50.760;6.080;2023-03-14T13:53:32;0.93;;;0.80;;
9080;SDS011;13509;50.760;6.080;2023-03-14T13:56:09;4.57;;;1.20;;
9080;SDS011;13509;50.760;6.080;2023-03-14T13:58:38;1.30;;;1.10;;
9080;SDS011;13509;50.760;6.080;2023-03-14T14:01:10;7.43;;;1.47;;
9080;SDS011;13509;50.760;6.080;2023-03-14T14:03:41;3.53;;;1.37;;
9080;SDS011;13509;50.760;6.080;2023-03-14T14:06:17;4.10;;;1.40;;
9080;SDS011;13509;50.760;6.080;2023-03-14T14:08:47;9.63;;;1.73;;
9080;SDS011;13509;50.760;6.080;2023-03-14T14:11:18;9.67;;;1.90;;
9080;SDS011;13509;50.760;6.080;2023-03-14T14:13:53;7.93;;;2.10;;
9080;SDS011;13509;50.760;6.080;2023-03-14T14:16:23;4.03;;;1.63;;
9080;SDS011;13509;50.760;6.080;2023-03-14T14:18:52;3.77;;;1.43;;
9080;SDS011;13509;50.760;6.080;2023-03-14T14:21:23;5.03;;;1.77;;
9080;SDS011;13509;50.760;6.080;2023-03-14T14:23:51;5.27;;;1.80;;
9080;SDS011;13509;50.760;6.080;2023-03-14T14:26:20;6.80;;;2.00;;
9080;SDS011;13509;50.760;6.080;2023-03-14T14:28:57;7.10;;;1.97;;
9080;SDS011;13509;50.760;6.080;2023-03-14T14:31:26;8.40;;;2.40;;
9080;SDS011;13509;50.760;6.080;2023-03-14T14:33:55;9.20;;;2.00;;
9080;SDS011;13509;50.760;6.080;2023-03-14T14:36:25;9.23;;;2.20;;
9080;SDS011;13509;50.760;6.080;2023-03-14T14:38:57;8.93;;;2.30;;
9080;SDS011;13509;50.760;6.080;2023-03-14T14:41:26;17.97;;;3.83;;
9080;SDS011;13509;50.760;6.080;2023-03-14T14:43:55;8.87;;;2.57;;
9080;SDS011;13509;50.760;6.080;2023-03-14T14:46:23;10.53;;;1.90;;
9080;SDS011;13509;50.760;6.080;2023-03-14T14:48:54;9.20;;;2.40;;
9080;SDS011;13509;50.760;6.080;2023-03-14T14:51:26;7.03;;;2.10;;
9080;SDS011;13509;50.760;6.080;2023-03-14T14:56:49;8.87;;;2.77;;
9080;SDS011;13509;50.760;6.080;2023-03-14T14:59:22;10.60;;;2.10;;
9080;SDS011;13509;50.760;6.080;2023-03-14T15:01:54;11.43;;;2.40;;
9080;SDS011;13509;50.760;6.080;2023-03-14T15:04:23;12.30;;;2.27;;
9080;SDS011;13509;50.760;6.080;2023-03-14T15:06:52;15.13;;;2.60;;
9080;SDS011;13509;50.760;6.080;2023-03-14T15:09:21;12.60;;;2.60;;
9080;SDS011;13509;50.760;6.080;2023-03-14T15:11:49;12.27;;;2.80;;
9080;SDS011;13509;50.760;6.080;2023-03-14T15:14:17;9.43;;;2.17;;
9080;SDS011;13509;50.760;6.080;2023-03-14T15:16:45;9.13;;;2.53;;
9080;SDS011;13509;50.760;6.080;2023-03-14T15:19:16;16.97;;;2.73;;